createdAt,value
2023-08-10T00:00:42.191Z,100.00
2023-08-10T00:03:10.236Z,100.00
2023-08-10T00:05:39.321Z,100.00
2023-08-10T00:08:07.244Z,100.00
2023-08-10T00:10:35.055Z,100.00
2023-08-10T00:13:04.067Z,100.00
2023-08-10T00:15:31.911Z,100.00
2023-08-10T00:17:59.748Z,100.00
2023-08-10T00:20:27.458Z,100.00
2023-08-10T00:22:55.065Z,100.00
2023-08-10T00:25:22.771Z,100.00
2023-08-10T00:27:50.995Z,100.00
2023-08-10T00:30:20.780Z,100.00
2023-08-10T00:32:48.441Z,100.00
2023-08-10T00:35:21.039Z,100.00
2023-08-10T00:37:50.214Z,100.00
2023-08-10T00:40:18.557Z,100.00
2023-08-10T00:42:46.272Z,100.00
2023-08-10T00:45:14.311Z,100.00
2023-08-10T00:47:43.441Z,100.00
2023-08-10T00:50:12.221Z,100.00
2023-08-10T00:52:40.002Z,100.00
2023-08-10T00:55:08.329Z,100.00
2023-08-10T00:57:36.311Z,100.00
2023-08-10T01:00:06.791Z,100.00
2023-08-10T01:02:34.585Z,100.00
2023-08-10T01:05:04.305Z,100.00
2023-08-10T01:07:39.720Z,100.00
2023-08-10T01:10:10.771Z,100.00
2023-08-10T01:12:40.841Z,100.00
2023-08-10T01:15:14.760Z,100.00
2023-08-10T01:17:53.920Z,100.00
2023-08-10T01:20:23.620Z,100.00
2023-08-10T01:22:56.292Z,100.00
2023-08-10T01:25:26.458Z,100.00
2023-08-10T01:27:54.428Z,100.00
2023-08-10T01:30:22.205Z,100.00
2023-08-10T01:32:50.005Z,100.00
2023-08-10T01:35:17.696Z,100.00
2023-08-10T01:37:45.354Z,100.00
2023-08-10T01:40:14.563Z,100.00
2023-08-10T01:42:44.714Z,100.00
2023-08-10T01:45:13.901Z,100.00
2023-08-10T01:47:44.708Z,100.00
2023-08-10T01:50:12.640Z,100.00
2023-08-10T01:52:46.135Z,100.00
2023-08-10T01:55:14.666Z,100.00
2023-08-10T01:57:43.611Z,100.00
2023-08-10T02:00:13.429Z,100.00
2023-08-10T02:02:41.320Z,100.00
2023-08-10T02:05:09.621Z,100.00
2023-08-10T02:07:37.231Z,100.00
2023-08-10T02:10:05.340Z,100.00
2023-08-10T02:12:33.130Z,100.00
2023-08-10T02:15:02.210Z,100.00
2023-08-10T02:17:36.580Z,100.00
2023-08-10T02:20:13.148Z,100.00
2023-08-10T02:22:43.331Z,100.00
2023-08-10T02:25:11.565Z,100.00
2023-08-10T02:27:40.335Z,100.00
2023-08-10T02:30:10.950Z,100.00
2023-08-10T02:32:39.196Z,100.00
2023-08-10T02:35:07.747Z,100.00
2023-08-10T02:37:35.493Z,100.00
2023-08-10T02:40:03.923Z,100.00
2023-08-10T02:42:31.702Z,100.00
2023-08-10T02:44:59.667Z,100.00
2023-08-10T02:47:28.807Z,100.00
2023-08-10T02:49:56.466Z,100.00
2023-08-10T02:52:24.141Z,100.00
2023-08-10T02:54:51.779Z,100.00
2023-08-10T02:57:19.445Z,100.00
2023-08-10T02:59:47.341Z,100.00
2023-08-10T03:02:17.001Z,100.00
2023-08-10T03:04:46.058Z,100.00
2023-08-10T03:07:13.826Z,100.00
2023-08-10T03:09:42.787Z,100.00
2023-08-10T03:12:10.694Z,100.00
2023-08-10T03:14:39.894Z,100.00
2023-08-10T03:17:07.750Z,100.00
2023-08-10T03:19:35.656Z,100.00
2023-08-10T03:22:05.099Z,100.00
2023-08-10T03:24:33.129Z,100.00
2023-08-10T03:27:00.895Z,100.00
2023-08-10T03:29:28.493Z,100.00
2023-08-10T03:31:56.373Z,100.00
2023-08-10T03:34:23.998Z,100.00
2023-08-10T03:36:52.275Z,100.00
2023-08-10T03:39:21.383Z,100.00
2023-08-10T03:41:48.974Z,100.00
2023-08-10T03:44:16.604Z,100.00
2023-08-10T03:46:44.269Z,100.00
2023-08-10T03:49:11.918Z,100.00
2023-08-10T03:51:39.567Z,100.00
2023-08-10T03:54:07.216Z,100.00
2023-08-10T03:56:36.171Z,100.00
2023-08-10T03:59:03.821Z,100.00
2023-08-10T04:01:31.897Z,100.00
2023-08-10T04:04:00.940Z,100.00
2023-08-10T04:06:29.047Z,100.00
2023-08-10T04:08:56.706Z,100.00
2023-08-10T04:11:24.290Z,100.00
2023-08-10T04:13:53.286Z,100.00
2023-08-10T04:16:20.936Z,100.00
2023-08-10T04:18:48.732Z,100.00
2023-08-10T04:21:16.914Z,100.00
2023-08-10T04:23:44.547Z,100.00
2023-08-10T04:26:12.182Z,100.00
2023-08-10T04:28:39.918Z,100.00
2023-08-10T04:31:09.216Z,100.00
2023-08-10T04:33:36.992Z,100.00
2023-08-10T04:36:04.870Z,100.00
2023-08-10T04:38:32.525Z,100.00
2023-08-10T04:41:00.213Z,100.00
2023-08-10T04:43:29.836Z,100.00
2023-08-10T04:45:57.659Z,100.00
2023-08-10T04:48:26.729Z,100.00
2023-08-10T04:50:54.395Z,100.00
2023-08-10T04:53:22.389Z,100.00
2023-08-10T04:55:49.998Z,100.00
2023-08-10T04:58:17.629Z,100.00
2023-08-10T05:00:45.689Z,100.00
2023-08-10T05:03:13.511Z,100.00
2023-08-10T05:05:43.247Z,100.00
2023-08-10T05:08:11.021Z,100.00
2023-08-10T05:10:38.914Z,100.00
2023-08-10T05:13:06.663Z,100.00
2023-08-10T05:15:34.300Z,100.00
2023-08-10T05:18:03.203Z,100.00
2023-08-10T05:20:30.988Z,100.00
2023-08-10T05:22:59.970Z,100.00
2023-08-10T05:25:27.693Z,100.00
2023-08-10T05:27:55.280Z,100.00
2023-08-10T05:30:22.886Z,100.00
2023-08-10T05:32:50.582Z,100.00
2023-08-10T05:35:19.060Z,100.00
2023-08-10T05:37:46.745Z,100.00
2023-08-10T05:40:15.889Z,100.00
2023-08-10T05:42:44.197Z,100.00
2023-08-10T05:45:16.373Z,100.00
2023-08-10T05:47:45.231Z,100.00
2023-08-10T05:50:13.293Z,100.00
2023-08-10T05:52:40.929Z,100.00
2023-08-10T05:55:09.713Z,100.00
2023-08-10T05:57:39.642Z,100.00
2023-08-10T06:00:08.458Z,100.00
2023-08-10T06:02:36.229Z,100.00
2023-08-10T06:05:07.353Z,100.00
2023-08-10T06:07:34.992Z,100.00
2023-08-10T06:10:02.644Z,100.00
2023-08-10T06:12:30.223Z,100.00
2023-08-10T06:14:59.149Z,100.00
2023-08-10T06:17:27.181Z,100.00
2023-08-10T06:19:59.252Z,100.00
2023-08-10T06:22:28.229Z,100.00
2023-08-10T06:24:55.866Z,100.00
2023-08-10T06:27:23.495Z,100.00
2023-08-10T06:29:51.121Z,100.00
2023-08-10T06:32:20.315Z,100.00
2023-08-10T06:34:48.356Z,100.00
2023-08-10T06:37:17.840Z,100.00
2023-08-10T06:39:47.424Z,100.00
2023-08-10T06:42:15.162Z,100.00
2023-08-10T06:44:43.325Z,100.00
2023-08-10T06:47:11.701Z,100.00
2023-08-10T06:49:41.023Z,100.00
2023-08-10T06:52:08.654Z,100.00
2023-08-10T06:54:36.283Z,100.00
2023-08-10T06:57:04.257Z,100.00
2023-08-10T07:00:33.025Z,100.00
2023-08-10T07:02:21.445Z,100.00
2023-08-10T07:04:50.702Z,100.00
2023-08-10T07:07:18.288Z,100.00
2023-08-10T07:09:47.762Z,100.00
2023-08-10T07:12:15.392Z,100.00
2023-08-10T07:14:43.018Z,100.00
2023-08-10T07:17:10.782Z,100.00
2023-08-10T07:19:38.416Z,100.00
2023-08-10T07:22:07.578Z,100.00
2023-08-10T07:24:35.303Z,100.00
2023-08-10T07:27:06.200Z,100.00
2023-08-10T07:29:37.132Z,100.00
2023-08-10T07:32:05.369Z,100.00
2023-08-10T07:34:33.237Z,100.00
2023-08-10T07:37:00.875Z,100.00
2023-08-10T07:39:30.415Z,100.00
2023-08-10T07:41:57.989Z,100.00
2023-08-10T07:44:25.610Z,100.00
2023-08-10T07:46:53.307Z,100.00
2023-08-10T07:49:21.203Z,100.00
2023-08-10T07:51:48.865Z,100.00
2023-08-10T07:54:16.524Z,100.00
2023-08-10T07:56:45.603Z,100.00
2023-08-10T07:59:13.350Z,100.00
2023-08-10T08:01:42.270Z,100.00
2023-08-10T08:04:10.167Z,100.00
2023-08-10T08:06:38.000Z,100.00
2023-08-10T08:09:07.872Z,100.00
2023-08-10T08:11:36.806Z,100.00
2023-08-10T08:14:06.018Z,100.00
2023-08-10T08:16:33.880Z,100.00
2023-08-10T08:19:01.642Z,100.00
2023-08-10T08:21:30.820Z,100.00
2023-08-10T08:23:59.498Z,100.00
2023-08-10T08:26:27.788Z,100.00
2023-08-10T08:28:55.602Z,100.00
2023-08-10T08:31:24.628Z,100.00
2023-08-10T08:33:52.963Z,100.00
2023-08-10T08:36:20.698Z,100.00
2023-08-10T08:38:48.372Z,100.00
2023-08-10T08:41:19.157Z,100.00
2023-08-10T08:43:48.294Z,100.00
2023-08-10T08:46:16.301Z,100.00
2023-08-10T08:48:45.627Z,100.00
2023-08-10T08:51:13.397Z,100.00
2023-08-10T08:53:41.295Z,100.00
2023-08-10T08:56:09.196Z,100.00
2023-08-10T08:58:36.817Z,100.00
2023-08-10T09:01:05.546Z,100.00
2023-08-10T09:03:33.628Z,100.00
2023-08-10T09:06:03.131Z,100.00
2023-08-10T09:08:32.669Z,100.00
2023-08-10T09:11:00.783Z,100.00
2023-08-10T09:13:28.560Z,100.00
2023-08-10T09:16:07.085Z,100.00
2023-08-10T09:18:35.277Z,100.00
2023-08-10T09:21:14.571Z,100.00
2023-08-10T09:23:43.072Z,100.00
2023-08-10T09:26:11.249Z,100.00
2023-08-10T09:28:39.559Z,100.00
2023-08-10T09:31:08.582Z,100.00
2023-08-10T09:33:37.447Z,100.00
2023-08-10T09:36:06.791Z,100.00
2023-08-10T09:38:36.152Z,100.00
2023-08-10T09:41:11.940Z,100.00
2023-08-10T09:43:39.796Z,100.00
2023-08-10T09:46:08.393Z,100.00
2023-08-10T09:48:36.712Z,100.00
2023-08-10T09:51:05.555Z,100.00
2023-08-10T09:53:35.246Z,100.00
2023-08-10T09:56:02.947Z,100.00
2023-08-10T09:58:31.719Z,100.00
2023-08-10T10:00:59.335Z,100.00
2023-08-10T10:03:30.824Z,100.00
2023-08-10T10:05:58.772Z,100.00
2023-08-10T10:08:27.109Z,100.00
2023-08-10T10:10:58.998Z,100.00
2023-08-10T10:13:27.639Z,100.00
2023-08-10T10:15:56.247Z,100.00
2023-08-10T10:18:24.643Z,100.00
2023-08-10T10:20:52.922Z,100.00
2023-08-10T10:23:22.505Z,100.00
2023-08-10T10:26:02.130Z,100.00
2023-08-10T10:28:31.985Z,100.00
2023-08-10T10:31:09.977Z,100.00
2023-08-10T10:33:39.857Z,100.00
2023-08-10T10:36:22.409Z,100.00
2023-08-10T10:38:56.949Z,98.25
2023-08-10T10:41:33.208Z,100.00
2023-08-10T10:44:02.265Z,88.59
2023-08-10T10:46:42.004Z,81.64
2023-08-10T10:49:13.770Z,78.28
2023-08-10T10:51:54.075Z,89.86
2023-08-10T10:54:21.863Z,88.56
2023-08-10T10:56:50.792Z,97.02
2023-08-10T10:59:18.491Z,86.22
2023-08-10T11:01:48.808Z,87.83
2023-08-10T11:04:16.526Z,82.03
2023-08-10T11:06:44.155Z,76.68
2023-08-10T11:09:14.417Z,79.35
2023-08-10T11:11:42.772Z,77.30
2023-08-10T11:14:12.448Z,72.35
2023-08-10T11:16:43.303Z,65.56
2023-08-10T11:19:12.777Z,69.98
2023-08-10T11:21:40.590Z,72.66
2023-08-10T11:24:09.870Z,74.08
2023-08-10T11:26:38.134Z,66.64
2023-08-10T11:29:06.235Z,64.35
2023-08-10T11:31:43.917Z,64.57
2023-08-10T11:34:21.326Z,60.96
2023-08-10T11:36:49.153Z,58.63
2023-08-10T11:39:16.788Z,53.29
2023-08-10T11:41:46.220Z,54.24
2023-08-10T11:44:24.267Z,55.60
2023-08-10T11:46:53.298Z,56.43
2023-08-10T11:49:21.467Z,55.53
2023-08-10T11:51:49.259Z,52.84
2023-08-10T11:54:16.970Z,55.77
2023-08-10T11:56:46.314Z,54.29
2023-08-10T11:59:15.422Z,55.59
2023-08-10T12:01:47.059Z,50.68
2023-08-10T12:04:20.283Z,53.83
2023-08-10T12:06:48.718Z,51.59
2023-08-10T12:09:17.710Z,54.87
2023-08-10T12:11:49.703Z,55.31
2023-08-10T12:14:20.079Z,51.73
2023-08-10T12:16:47.844Z,52.57
2023-08-10T12:19:17.592Z,48.83
2023-08-10T12:21:46.938Z,50.67
2023-08-10T12:24:14.664Z,47.74
2023-08-10T12:26:43.702Z,50.08
2023-08-10T12:29:14.687Z,50.20
2023-08-10T12:31:42.681Z,48.20
2023-08-10T12:34:10.449Z,47.66
2023-08-10T12:36:39.495Z,46.49
2023-08-10T12:39:08.758Z,48.66
2023-08-10T12:41:36.541Z,44.97
2023-08-10T12:44:04.504Z,42.63
2023-08-10T12:46:32.265Z,40.93
2023-08-10T12:48:59.974Z,37.53
2023-08-10T12:51:27.728Z,34.55
2023-08-10T12:53:56.919Z,37.00
2023-08-10T12:56:24.653Z,37.13
2023-08-10T12:58:52.453Z,34.90
2023-08-10T13:01:20.307Z,32.34
2023-08-10T13:03:47.974Z,33.92
2023-08-10T13:06:15.705Z,33.28
2023-08-10T13:08:43.838Z,32.58
2023-08-10T13:11:12.909Z,31.67
2023-08-10T13:13:41.012Z,30.18
2023-08-10T13:16:08.759Z,30.19
2023-08-10T13:18:36.577Z,30.87
2023-08-10T13:21:04.555Z,29.74
2023-08-10T13:23:32.335Z,31.79
2023-08-10T13:26:00.152Z,33.01
2023-08-10T13:28:29.180Z,31.15
2023-08-10T13:30:56.851Z,28.80
2023-08-10T13:33:24.584Z,28.38
2023-08-10T13:35:52.277Z,29.18
2023-08-10T13:38:20.029Z,30.70
2023-08-10T13:40:47.721Z,29.07
2023-08-10T13:43:15.993Z,28.21
2023-08-10T13:45:45.053Z,28.76
2023-08-10T13:48:12.992Z,31.37
2023-08-10T13:50:40.898Z,28.26
2023-08-10T13:53:09.118Z,30.05
2023-08-10T13:55:36.831Z,28.50
2023-08-10T13:58:06.689Z,28.03
2023-08-10T14:00:34.606Z,27.08
2023-08-10T14:03:08.062Z,27.79
2023-08-10T14:05:36.433Z,28.01
2023-08-10T14:08:04.116Z,28.24
2023-08-10T14:10:31.745Z,26.34
2023-08-10T14:12:59.488Z,26.03
2023-08-10T14:15:27.101Z,27.35
2023-08-10T14:17:55.283Z,25.45
2023-08-10T14:20:24.327Z,25.96
2023-08-10T14:22:52.548Z,27.45
2023-08-10T14:25:20.273Z,27.52
2023-08-10T14:27:49.553Z,29.24
2023-08-10T14:30:17.184Z,24.92
2023-08-10T14:32:44.858Z,27.29
2023-08-10T14:35:12.655Z,24.84
2023-08-10T14:37:41.690Z,24.57
2023-08-10T14:40:09.990Z,26.23
2023-08-10T14:42:37.652Z,23.91
2023-08-10T14:45:07.338Z,25.84
2023-08-10T14:47:37.210Z,26.36
2023-08-10T14:50:06.317Z,27.33
2023-08-10T14:52:34.052Z,28.37
2023-08-10T14:55:16.213Z,27.68
2023-08-10T14:57:48.400Z,29.01
2023-08-10T15:00:18.349Z,30.02
2023-08-10T15:02:47.402Z,31.04
2023-08-10T15:05:16.489Z,25.40
2023-08-10T15:07:44.926Z,28.30
2023-08-10T15:10:14.432Z,27.13
2023-08-10T15:12:42.105Z,27.66
2023-08-10T15:15:11.162Z,29.78
2023-08-10T15:17:38.831Z,26.73
2023-08-10T15:20:09.461Z,26.16
2023-08-10T15:22:37.469Z,27.69
2023-08-10T15:25:07.857Z,27.61
2023-08-10T15:27:38.032Z,29.37
2023-08-10T15:30:07.224Z,33.35
2023-08-10T15:32:34.875Z,36.14
2023-08-10T15:35:02.534Z,37.98
2023-08-10T15:37:33.397Z,41.18
2023-08-10T15:40:01.178Z,42.08
2023-08-10T15:42:28.872Z,41.64
2023-08-10T15:44:59.044Z,44.58
2023-08-10T15:47:26.701Z,45.28
2023-08-10T15:49:54.573Z,46.80
2023-08-10T15:52:22.164Z,46.95
2023-08-10T15:54:49.776Z,45.50
2023-08-10T15:57:17.450Z,45.15
2023-08-10T15:59:45.107Z,47.06
2023-08-10T16:02:14.901Z,49.53
2023-08-10T16:04:42.950Z,51.17
2023-08-10T16:07:10.574Z,49.73
2023-08-10T16:09:38.256Z,49.07
2023-08-10T16:12:08.136Z,50.97
2023-08-10T16:14:36.343Z,51.67
2023-08-10T16:17:05.263Z,53.16
2023-08-10T16:19:34.233Z,53.40
2023-08-10T16:22:01.900Z,58.59
2023-08-10T16:24:29.576Z,56.48
2023-08-10T16:26:57.234Z,56.92
2023-08-10T16:29:24.957Z,60.47
2023-08-10T16:31:52.636Z,56.54
2023-08-10T16:34:20.350Z,58.60
2023-08-10T16:36:49.865Z,56.69
2023-08-10T16:39:17.515Z,59.45
2023-08-10T16:41:45.149Z,61.29
2023-08-10T16:44:12.792Z,62.44
2023-08-10T16:46:40.417Z,57.74
2023-08-10T16:49:08.281Z,61.80
2023-08-10T16:51:36.469Z,61.63
2023-08-10T16:54:05.972Z,60.69
2023-08-10T16:56:35.105Z,58.80
2023-08-10T16:59:02.705Z,58.69
2023-08-10T17:03:58.409Z,66.84
2023-08-10T17:06:26.027Z,64.04
2023-08-10T17:08:53.848Z,65.27
2023-08-10T17:11:22.989Z,63.92
2023-08-10T17:13:50.808Z,65.04
2023-08-10T17:16:18.647Z,100.00
2023-08-10T17:18:46.310Z,100.00
2023-08-10T17:21:13.910Z,100.00
2023-08-10T17:23:44.358Z,100.00
2023-08-10T17:26:11.953Z,100.00
2023-08-10T17:28:40.863Z,100.00
2023-08-10T17:31:08.627Z,100.00
2023-08-10T17:33:39.158Z,100.00
2023-08-10T17:36:07.159Z,100.00
2023-08-10T17:38:35.430Z,100.00
2023-08-10T17:41:03.216Z,100.00
2023-08-10T17:43:31.141Z,100.00
2023-08-10T17:46:00.180Z,100.00
2023-08-10T17:48:27.936Z,100.00
2023-08-10T17:50:55.565Z,100.00
2023-08-10T17:53:23.327Z,100.00
2023-08-10T17:55:52.726Z,100.00
2023-08-10T17:58:20.458Z,100.00
2023-08-10T18:00:48.097Z,100.00
2023-08-10T18:03:18.029Z,100.00
2023-08-10T18:05:45.904Z,100.00
2023-08-10T18:08:13.555Z,100.00
2023-08-10T18:10:41.252Z,100.00
2023-08-10T18:13:08.874Z,100.00
2023-08-10T18:15:36.509Z,100.00
2023-08-10T18:18:04.306Z,100.00
2023-08-10T18:20:33.313Z,100.00
2023-08-10T18:23:00.992Z,100.00
2023-08-10T18:25:28.842Z,100.00
2023-08-10T18:27:56.737Z,100.00
2023-08-10T18:30:24.545Z,100.00
2023-08-10T18:32:52.200Z,100.00
2023-08-10T18:35:20.072Z,100.00
2023-08-10T18:37:49.047Z,100.00
2023-08-10T18:40:16.828Z,100.00
2023-08-10T18:42:45.603Z,100.00
2023-08-10T18:45:13.203Z,100.00
2023-08-10T18:47:43.895Z,100.00
2023-08-10T18:50:12.183Z,100.00
2023-08-10T18:52:40.032Z,100.00
2023-08-10T18:55:10.759Z,100.00
2023-08-10T18:57:39.703Z,100.00
2023-08-10T19:00:09.247Z,100.00
2023-08-10T19:02:36.953Z,100.00
2023-08-10T19:05:05.546Z,100.00
2023-08-10T19:07:33.158Z,100.00
2023-08-10T19:10:00.865Z,100.00
2023-08-10T19:12:30.045Z,100.00
2023-08-10T19:14:57.736Z,100.00
2023-08-10T19:17:25.671Z,100.00
2023-08-10T19:19:53.389Z,100.00
2023-08-10T19:22:21.229Z,100.00
2023-08-10T19:24:48.891Z,100.00
2023-08-10T19:27:20.830Z,100.00
2023-08-10T19:29:49.873Z,100.00
2023-08-10T19:32:18.083Z,100.00
2023-08-10T19:34:46.047Z,100.00
2023-08-10T19:37:13.713Z,100.00
2023-08-10T19:39:41.567Z,100.00
2023-08-10T19:42:09.466Z,100.00
2023-08-10T19:44:37.395Z,100.00
2023-08-10T19:47:07.110Z,100.00
2023-08-10T19:49:34.854Z,100.00
2023-08-10T19:52:04.169Z,100.00
2023-08-10T19:54:32.464Z,100.00
2023-08-10T19:57:00.182Z,100.00
2023-08-10T19:59:27.843Z,100.00
2023-08-10T20:01:55.839Z,100.00
2023-08-10T20:04:24.965Z,100.00
2023-08-10T20:06:53.248Z,100.00
2023-08-10T20:09:21.167Z,100.00
2023-08-10T20:11:49.191Z,100.00
2023-08-10T20:14:16.919Z,100.00
2023-08-10T20:16:44.565Z,100.00
2023-08-10T20:19:12.172Z,100.00
2023-08-10T20:21:41.259Z,100.00
2023-08-10T20:24:09.455Z,100.00
2023-08-10T20:26:37.568Z,100.00
2023-08-10T20:29:05.836Z,100.00
2023-08-10T20:31:33.601Z,100.00
2023-08-10T20:34:01.367Z,100.00
2023-08-10T20:36:30.213Z,100.00
2023-08-10T20:38:59.509Z,100.00
2023-08-10T20:41:27.957Z,100.00
2023-08-10T20:43:55.641Z,100.00
2023-08-10T20:46:24.393Z,100.00
2023-08-10T20:48:53.440Z,100.00
2023-08-10T20:51:22.084Z,100.00
2023-08-10T20:53:51.656Z,100.00
2023-08-10T20:56:22.006Z,100.00
2023-08-10T20:58:50.951Z,100.00
2023-08-10T21:01:18.912Z,100.00
2023-08-10T21:03:46.629Z,100.00
2023-08-10T21:06:15.131Z,100.00
2023-08-10T21:08:45.764Z,100.00
2023-08-10T21:11:14.048Z,100.00
2023-08-10T21:13:43.005Z,100.00
2023-08-10T21:16:11.816Z,100.00
2023-08-10T21:18:39.693Z,100.00
2023-08-10T21:21:07.272Z,100.00
2023-08-10T21:23:34.906Z,100.00
2023-08-10T21:26:02.545Z,100.00
2023-08-10T21:28:30.223Z,100.00
2023-08-10T21:30:59.186Z,100.00
2023-08-10T21:33:26.883Z,100.00
2023-08-10T21:35:54.541Z,100.00
2023-08-10T21:38:22.200Z,100.00
2023-08-10T21:40:49.790Z,100.00
2023-08-10T21:43:17.480Z,100.00
2023-08-10T21:45:45.158Z,100.00
2023-08-10T21:48:14.123Z,100.00
2023-08-10T21:50:41.743Z,100.00
2023-08-10T21:53:09.416Z,100.00
2023-08-10T21:55:37.181Z,100.00
2023-08-10T21:58:05.034Z,100.00
2023-08-10T22:00:32.683Z,100.00
2023-08-10T22:03:00.362Z,100.00
2023-08-10T22:05:29.562Z,100.00
2023-08-10T22:07:57.634Z,100.00
2023-08-10T22:10:26.455Z,100.00
2023-08-10T22:12:54.089Z,100.00
2023-08-10T22:15:21.901Z,100.00
2023-08-10T22:17:49.658Z,100.00
2023-08-10T22:20:18.082Z,100.00
2023-08-10T22:23:01.967Z,100.00
2023-08-10T22:25:32.598Z,100.00
2023-08-10T22:28:01.485Z,100.00
2023-08-10T22:30:29.352Z,100.00
2023-08-10T22:32:57.073Z,100.00
2023-08-10T22:35:25.186Z,100.00
2023-08-10T22:37:54.176Z,100.00
2023-08-10T22:40:21.868Z,100.00
2023-08-10T22:42:49.535Z,100.00
2023-08-10T22:45:17.347Z,100.00
2023-08-10T22:47:45.118Z,100.00
2023-08-10T22:50:14.553Z,100.00
2023-08-10T22:52:42.921Z,100.00
2023-08-10T22:55:12.626Z,100.00
2023-08-10T22:57:40.653Z,100.00
2023-08-10T23:00:11.058Z,100.00
2023-08-10T23:02:38.783Z,100.00
2023-08-10T23:05:07.262Z,100.00
2023-08-10T23:07:34.939Z,100.00
2023-08-10T23:10:05.793Z,100.00
2023-08-10T23:12:34.843Z,100.00
2023-08-10T23:15:02.561Z,100.00
2023-08-10T23:17:30.556Z,100.00
2023-08-10T23:19:58.601Z,100.00
2023-08-10T23:22:26.269Z,100.00
2023-08-10T23:24:53.925Z,100.00
2023-08-10T23:27:21.581Z,100.00
2023-08-10T23:29:50.541Z,100.00
2023-08-10T23:32:18.624Z,100.00
2023-08-10T23:34:46.553Z,100.00
2023-08-10T23:37:14.620Z,100.00
2023-08-10T23:39:42.237Z,100.00
2023-08-10T23:42:09.966Z,100.00
2023-08-10T23:44:37.593Z,100.00
2023-08-10T23:47:15.822Z,100.00
2023-08-10T23:49:44.809Z,100.00
2023-08-10T23:52:12.638Z,100.00
2023-08-10T23:54:40.327Z,100.00
2023-08-10T23:57:09.013Z,100.00
2023-08-10T23:59:38.135Z,100.00
